sensor_id;sensor_type;location;lat;lon;timestamp;P1;durP1;ratioP1;P2;durP2;ratioP2
59458;SDS011;45269;43.568;22.244;2024-03-23T00:54:38;96.93;;;74.07;;
59458;SDS011;45269;43.568;22.244;2024-03-23T00:57:03;109.63;;;81.80;;
59458;SDS011;45269;43.568;22.244;2024-03-23T00:59:29;118.47;;;90.85;;
59458;SDS011;45269;43.568;22.244;2024-03-23T01:01:56;106.45;;;87.63;;
59458;SDS011;45269;43.568;22.244;2024-03-23T01:04:21;78.80;;;65.30;;
59458;SDS011;45269;43.568;22.244;2024-03-23T01:06:46;36.97;;;31.65;;
59458;SDS011;45269;43.568;22.244;2024-03-23T01:09:12;39.88;;;33.80;;
59458;SDS011;45269;43.568;22.244;2024-03-23T01:11:38;51.50;;;43.92;;
59458;SDS011;45269;43.568;22.244;2024-03-23T01:14:04;90.50;;;66.80;;
59458;SDS011;45269;43.568;22.244;2024-03-23T01:16:29;86.40;;;62.42;;
59458;SDS011;45269;43.568;22.244;2024-03-23T01:18:54;84.93;;;68.55;;
59458;SDS011;45269;43.568;22.244;2024-03-23T01:21:20;75.38;;;61.88;;
59458;SDS011;45269;43.568;22.244;2024-03-23T01:23:45;87.65;;;72.25;;
59458;SDS011;45269;43.568;22.244;2024-03-23T01:26:10;79.68;;;63.63;;
59458;SDS011;45269;43.568;22.244;2024-03-23T01:28:36;71.13;;;57.33;;
59458;SDS011;45269;43.568;22.244;2024-03-23T01:31:01;68.35;;;54.22;;
59458;SDS011;45269;43.568;22.244;2024-03-23T01:33:27;70.38;;;54.20;;
59458;SDS011;45269;43.568;22.244;2024-03-23T01:35:52;73.53;;;51.10;;
59458;SDS011;45269;43.568;22.244;2024-03-23T01:38:17;59.72;;;44.08;;
59458;SDS011;45269;43.568;22.244;2024-03-23T01:40:43;48.75;;;40.22;;
59458;SDS011;45269;43.568;22.244;2024-03-23T01:43:08;51.83;;;41.38;;
59458;SDS011;45269;43.568;22.244;2024-03-23T01:45:34;40.50;;;32.95;;
59458;SDS011;45269;43.568;22.244;2024-03-23T01:47:59;34.67;;;28.77;;
59458;SDS011;45269;43.568;22.244;2024-03-23T01:50:25;86.05;;;61.53;;
59458;SDS011;45269;43.568;22.244;2024-03-23T01:52:51;58.05;;;45.00;;
59458;SDS011;45269;43.568;22.244;2024-03-23T01:55:16;49.08;;;40.13;;
59458;SDS011;45269;43.568;22.244;2024-03-23T01:57:41;50.95;;;40.45;;
59458;SDS011;45269;43.568;22.244;2024-03-23T02:00:07;55.38;;;42.95;;
59458;SDS011;45269;43.568;22.244;2024-03-23T02:02:33;58.25;;;42.28;;
59458;SDS011;45269;43.568;22.244;2024-03-23T02:04:58;50.80;;;41.15;;
59458;SDS011;45269;43.568;22.244;2024-03-23T02:07:24;38.58;;;31.83;;
59458;SDS011;45269;43.568;22.244;2024-03-23T02:09:50;31.98;;;25.17;;
59458;SDS011;45269;43.568;22.244;2024-03-23T02:12:16;42.17;;;33.38;;
59458;SDS011;45269;43.568;22.244;2024-03-23T02:14:42;48.95;;;33.95;;
59458;SDS011;45269;43.568;22.244;2024-03-23T02:17:07;50.47;;;34.97;;
59458;SDS011;45269;43.568;22.244;2024-03-23T02:19:33;49.92;;;36.15;;
59458;SDS011;45269;43.568;22.244;2024-03-23T02:21:59;51.85;;;36.95;;
59458;SDS011;45269;43.568;22.244;2024-03-23T02:24:24;58.65;;;40.50;;
59458;SDS011;45269;43.568;22.244;2024-03-23T02:26:49;47.13;;;35.42;;
59458;SDS011;45269;43.568;22.244;2024-03-23T02:29:15;32.55;;;26.42;;
59458;SDS011;45269;43.568;22.244;2024-03-23T02:31:40;43.30;;;33.45;;
59458;SDS011;45269;43.568;22.244;2024-03-23T02:34:05;45.55;;;36.97;;
59458;SDS011;45269;43.568;22.244;2024-03-23T02:36:31;41.75;;;34.28;;
59458;SDS011;45269;43.568;22.244;2024-03-23T02:38:56;47.65;;;35.00;;
59458;SDS011;45269;43.568;22.244;2024-03-23T02:41:22;71.82;;;43.97;;
59458;SDS011;45269;43.568;22.244;2024-03-23T02:43:51;46.65;;;33.03;;
59458;SDS011;45269;43.568;22.244;2024-03-23T02:46:17;45.28;;;32.55;;
59458;SDS011;45269;43.568;22.244;2024-03-23T02:48:42;41.45;;;30.33;;
59458;SDS011;45269;43.568;22.244;2024-03-23T02:51:08;47.10;;;31.98;;
59458;SDS011;45269;43.568;22.244;2024-03-23T02:53:33;50.50;;;33.10;;
59458;SDS011;45269;43.568;22.244;2024-03-23T02:55:59;54.65;;;37.28;;
59458;SDS011;45269;43.568;22.244;2024-03-23T02:58:24;53.83;;;37.47;;
59458;SDS011;45269;43.568;22.244;2024-03-23T03:00:49;62.28;;;45.72;;
59458;SDS011;45269;43.568;22.244;2024-03-23T03:03:15;79.15;;;57.75;;
59458;SDS011;45269;43.568;22.244;2024-03-23T03:05:40;72.20;;;55.28;;
59458;SDS011;45269;43.568;22.244;2024-03-23T03:08:06;63.58;;;47.08;;
59458;SDS011;45269;43.568;22.244;2024-03-23T03:10:31;59.83;;;44.08;;
59458;SDS011;45269;43.568;22.244;2024-03-23T03:13:00;73.75;;;54.33;;
59458;SDS011;45269;43.568;22.244;2024-03-23T03:15:25;61.58;;;46.15;;
59458;SDS011;45269;43.568;22.244;2024-03-23T03:17:50;72.82;;;53.75;;
59458;SDS011;45269;43.568;22.244;2024-03-23T03:20:16;71.45;;;53.13;;
59458;SDS011;45269;43.568;22.244;2024-03-23T03:22:42;51.70;;;38.22;;
59458;SDS011;45269;43.568;22.244;2024-03-23T03:25:08;69.18;;;49.78;;
59458;SDS011;45269;43.568;22.244;2024-03-23T03:27:33;63.08;;;46.78;;
59458;SDS011;45269;43.568;22.244;2024-03-23T03:29:59;52.75;;;41.55;;
59458;SDS011;45269;43.568;22.244;2024-03-23T03:32:27;55.80;;;40.67;;
59458;SDS011;45269;43.568;22.244;2024-03-23T03:34:53;46.60;;;36.65;;
59458;SDS011;45269;43.568;22.244;2024-03-23T03:37:18;50.50;;;39.22;;
59458;SDS011;45269;43.568;22.244;2024-03-23T03:39:43;39.15;;;29.83;;
59458;SDS011;45269;43.568;22.244;2024-03-23T03:42:09;35.85;;;28.13;;
59458;SDS011;45269;43.568;22.244;2024-03-23T03:44:34;48.88;;;34.90;;
59458;SDS011;45269;43.568;22.244;2024-03-23T03:46:59;49.60;;;36.53;;
59458;SDS011;45269;43.568;22.244;2024-03-23T03:49:25;45.28;;;32.20;;
59458;SDS011;45269;43.568;22.244;2024-03-23T03:51:50;42.92;;;30.05;;
59458;SDS011;45269;43.568;22.244;2024-03-23T03:54:15;50.10;;;36.05;;
59458;SDS011;45269;43.568;22.244;2024-03-23T03:56:41;40.88;;;33.65;;
59458;SDS011;45269;43.568;22.244;2024-03-23T03:59:06;51.13;;;38.42;;
59458;SDS011;45269;43.568;22.244;2024-03-23T04:01:32;43.40;;;37.00;;
59458;SDS011;45269;43.568;22.244;2024-03-23T04:03:57;40.50;;;33.35;;
59458;SDS011;45269;43.568;22.244;2024-03-23T04:06:22;62.58;;;45.40;;
59458;SDS011;45269;43.568;22.244;2024-03-23T04:08:48;60.30;;;45.30;;
59458;SDS011;45269;43.568;22.244;2024-03-23T04:11:14;63.83;;;47.80;;
59458;SDS011;45269;43.568;22.244;2024-03-23T04:13:39;92.55;;;57.78;;
59458;SDS011;45269;43.568;22.244;2024-03-23T04:16:06;85.97;;;52.25;;
59458;SDS011;45269;43.568;22.244;2024-03-23T04:18:32;84.57;;;52.35;;
59458;SDS011;45269;43.568;22.244;2024-03-23T04:20:57;81.05;;;52.20;;
59458;SDS011;45269;43.568;22.244;2024-03-23T04:23:23;56.38;;;38.38;;
59458;SDS011;45269;43.568;22.244;2024-03-23T04:25:48;49.42;;;35.08;;
59458;SDS011;45269;43.568;22.244;2024-03-23T04:28:13;50.80;;;37.75;;
59458;SDS011;45269;43.568;22.244;2024-03-23T04:30:38;58.53;;;40.90;;
59458;SDS011;45269;43.568;22.244;2024-03-23T04:33:04;52.95;;;39.30;;
59458;SDS011;45269;43.568;22.244;2024-03-23T04:35:30;43.47;;;33.92;;
59458;SDS011;45269;43.568;22.244;2024-03-23T04:37:55;33.75;;;27.15;;
59458;SDS011;45269;43.568;22.244;2024-03-23T04:40:21;42.35;;;34.95;;
59458;SDS011;45269;43.568;22.244;2024-03-23T04:42:46;55.60;;;44.80;;
59458;SDS011;45269;43.568;22.244;2024-03-23T04:45:12;51.95;;;41.22;;
59458;SDS011;45269;43.568;22.244;2024-03-23T04:47:38;59.50;;;49.60;;
59458;SDS011;45269;43.568;22.244;2024-03-23T04:50:03;57.20;;;47.92;;
59458;SDS011;45269;43.568;22.244;2024-03-23T04:52:29;49.95;;;43.17;;
59458;SDS011;45269;43.568;22.244;2024-03-23T04:54:55;50.85;;;42.47;;
59458;SDS011;45269;43.568;22.244;2024-03-23T04:57:20;56.10;;;43.63;;
59458;SDS011;45269;43.568;22.244;2024-03-23T04:59:45;47.28;;;39.85;;
59458;SDS011;45269;43.568;22.244;2024-03-23T05:02:12;59.15;;;47.45;;
59458;SDS011;45269;43.568;22.244;2024-03-23T05:04:37;55.63;;;42.85;;
59458;SDS011;45269;43.568;22.244;2024-03-23T05:07:03;51.75;;;42.38;;
59458;SDS011;45269;43.568;22.244;2024-03-23T05:09:29;64.30;;;50.35;;
59458;SDS011;45269;43.568;22.244;2024-03-23T05:11:55;52.95;;;45.05;;
59458;SDS011;45269;43.568;22.244;2024-03-23T05:14:20;52.33;;;44.60;;
59458;SDS011;45269;43.568;22.244;2024-03-23T05:16:46;66.38;;;55.50;;
59458;SDS011;45269;43.568;22.244;2024-03-23T05:19:11;72.13;;;60.65;;
59458;SDS011;45269;43.568;22.244;2024-03-23T05:21:36;72.55;;;60.38;;
59458;SDS011;45269;43.568;22.244;2024-03-23T05:24:02;68.57;;;58.70;;
59458;SDS011;45269;43.568;22.244;2024-03-23T05:26:28;62.83;;;55.65;;
59458;SDS011;45269;43.568;22.244;2024-03-23T05:28:53;118.63;;;98.88;;
59458;SDS011;45269;43.568;22.244;2024-03-23T05:31:25;94.78;;;78.85;;
59458;SDS011;45269;43.568;22.244;2024-03-23T05:33:51;98.20;;;76.75;;
59458;SDS011;45269;43.568;22.244;2024-03-23T05:36:17;100.28;;;80.63;;
59458;SDS011;45269;43.568;22.244;2024-03-23T05:38:42;151.35;;;122.43;;
59458;SDS011;45269;43.568;22.244;2024-03-23T05:41:07;144.82;;;109.03;;
59458;SDS011;45269;43.568;22.244;2024-03-23T05:43:33;171.57;;;125.32;;
59458;SDS011;45269;43.568;22.244;2024-03-23T05:45:59;173.85;;;133.23;;
59458;SDS011;45269;43.568;22.244;2024-03-23T05:48:25;156.07;;;123.40;;
59458;SDS011;45269;43.568;22.244;2024-03-23T05:50:50;173.73;;;136.70;;
59458;SDS011;45269;43.568;22.244;2024-03-23T05:53:16;188.13;;;136.48;;
59458;SDS011;45269;43.568;22.244;2024-03-23T05:55:42;174.02;;;125.70;;
59458;SDS011;45269;43.568;22.244;2024-03-23T05:58:07;184.55;;;133.80;;
59458;SDS011;45269;43.568;22.244;2024-03-23T06:00:33;198.40;;;149.80;;
59458;SDS011;45269;43.568;22.244;2024-03-23T06:02:58;132.95;;;100.80;;
59458;SDS011;45269;43.568;22.244;2024-03-23T06:05:23;128.13;;;98.97;;
59458;SDS011;45269;43.568;22.244;2024-03-23T06:07:49;117.63;;;88.20;;
59458;SDS011;45269;43.568;22.244;2024-03-23T06:10:15;106.30;;;78.30;;
59458;SDS011;45269;43.568;22.244;2024-03-23T06:12:40;81.78;;;63.60;;
59458;SDS011;45269;43.568;22.244;2024-03-23T06:15:06;56.70;;;45.72;;
59458;SDS011;45269;43.568;22.244;2024-03-23T06:17:35;60.10;;;47.63;;
59458;SDS011;45269;43.568;22.244;2024-03-23T06:20:01;137.73;;;109.13;;
59458;SDS011;45269;43.568;22.244;2024-03-23T06:22:26;99.65;;;77.65;;
59458;SDS011;45269;43.568;22.244;2024-03-23T06:24:51;110.35;;;91.63;;
59458;SDS011;45269;43.568;22.244;2024-03-23T06:27:17;154.95;;;122.85;;
59458;SDS011;45269;43.568;22.244;2024-03-23T06:29:42;139.70;;;111.57;;
59458;SDS011;45269;43.568;22.244;2024-03-23T06:32:07;140.05;;;119.35;;
59458;SDS011;45269;43.568;22.244;2024-03-23T06:34:33;70.60;;;61.80;;
59458;SDS011;45269;43.568;22.244;2024-03-23T06:36:58;61.63;;;51.47;;
59458;SDS011;45269;43.568;22.244;2024-03-23T06:39:23;42.22;;;37.28;;
59458;SDS011;45269;43.568;22.244;2024-03-23T06:41:52;36.53;;;32.53;;
59458;SDS011;45269;43.568;22.244;2024-03-23T06:44:18;28.47;;;25.50;;
59458;SDS011;45269;43.568;22.244;2024-03-23T06:46:44;33.38;;;29.40;;
59458;SDS011;45269;43.568;22.244;2024-03-23T06:49:09;32.08;;;27.77;;
59458;SDS011;45269;43.568;22.244;2024-03-23T06:51:35;40.35;;;36.25;;
59458;SDS011;45269;43.568;22.244;2024-03-23T06:54:00;43.65;;;39.13;;
59458;SDS011;45269;43.568;22.244;2024-03-23T06:56:26;35.13;;;31.50;;
59458;SDS011;45269;43.568;22.244;2024-03-23T06:58:51;32.75;;;29.25;;
59458;SDS011;45269;43.568;22.244;2024-03-23T07:01:16;33.00;;;29.35;;
59458;SDS011;45269;43.568;22.244;2024-03-23T07:03:42;48.88;;;37.85;;
59458;SDS011;45269;43.568;22.244;2024-03-23T07:06:09;50.50;;;41.15;;
59458;SDS011;45269;43.568;22.244;2024-03-23T07:08:34;79.47;;;54.95;;
59458;SDS011;45269;43.568;22.244;2024-03-23T07:10:59;126.03;;;83.95;;
59458;SDS011;45269;43.568;22.244;2024-03-23T07:13:25;58.63;;;45.15;;
59458;SDS011;45269;43.568;22.244;2024-03-23T07:15:53;46.13;;;35.88;;
59458;SDS011;45269;43.568;22.244;2024-03-23T07:18:20;55.33;;;47.05;;
59458;SDS011;45269;43.568;22.244;2024-03-23T07:20:53;42.63;;;36.20;;
59458;SDS011;45269;43.568;22.244;2024-03-23T07:23:18;26.67;;;22.15;;
59458;SDS011;45269;43.568;22.244;2024-03-23T07:25:43;39.08;;;34.90;;
59458;SDS011;45269;43.568;22.244;2024-03-23T07:28:09;28.60;;;25.65;;
59458;SDS011;45269;43.568;22.244;2024-03-23T07:30:35;36.85;;;27.15;;
59458;SDS011;45269;43.568;22.244;2024-03-23T07:33:00;29.17;;;23.27;;
59458;SDS011;45269;43.568;22.244;2024-03-23T07:35:26;20.42;;;16.05;;
59458;SDS011;45269;43.568;22.244;2024-03-23T07:37:51;12.73;;;10.25;;
59458;SDS011;45269;43.568;22.244;2024-03-23T07:40:16;12.40;;;10.98;;
59458;SDS011;45269;43.568;22.244;2024-03-23T07:42:42;15.90;;;14.38;;
59458;SDS011;45269;43.568;22.244;2024-03-23T07:45:07;18.38;;;16.38;;
59458;SDS011;45269;43.568;22.244;2024-03-23T07:47:34;12.68;;;11.32;;
59458;SDS011;45269;43.568;22.244;2024-03-23T07:49:59;12.32;;;10.80;;
59458;SDS011;45269;43.568;22.244;2024-03-23T07:52:27;14.27;;;12.85;;
59458;SDS011;45269;43.568;22.244;2024-03-23T07:54:53;18.55;;;16.75;;
59458;SDS011;45269;43.568;22.244;2024-03-23T07:57:18;16.15;;;14.23;;
59458;SDS011;45269;43.568;22.244;2024-03-23T07:59:43;25.30;;;22.75;;
59458;SDS011;45269;43.568;22.244;2024-03-23T08:02:09;17.73;;;16.02;;
59458;SDS011;45269;43.568;22.244;2024-03-23T08:04:34;13.52;;;12.07;;
59458;SDS011;45269;43.568;22.244;2024-03-23T08:06:59;17.20;;;15.38;;
59458;SDS011;45269;43.568;22.244;2024-03-23T08:09:25;18.52;;;16.63;;
59458;SDS011;45269;43.568;22.244;2024-03-23T08:11:50;12.15;;;10.70;;
59458;SDS011;45269;43.568;22.244;2024-03-23T08:14:15;12.73;;;11.40;;
59458;SDS011;45269;43.568;22.244;2024-03-23T08:16:41;12.75;;;11.15;;
59458;SDS011;45269;43.568;22.244;2024-03-23T08:19:06;10.13;;;9.13;;
59458;SDS011;45269;43.568;22.244;2024-03-23T08:21:33;10.82;;;9.75;;
59458;SDS011;45269;43.568;22.244;2024-03-23T08:23:59;10.85;;;9.80;;
59458;SDS011;45269;43.568;22.244;2024-03-23T08:26:24;11.45;;;10.10;;
59458;SDS011;45269;43.568;22.244;2024-03-23T08:28:49;31.33;;;27.13;;
59458;SDS011;45269;43.568;22.244;2024-03-23T08:31:15;11.10;;;10.00;;
59458;SDS011;45269;43.568;22.244;2024-03-23T08:33:40;11.43;;;10.32;;
59458;SDS011;45269;43.568;22.244;2024-03-23T08:36:08;13.68;;;8.50;;
59458;SDS011;45269;43.568;22.244;2024-03-23T08:38:34;10.85;;;9.75;;
59458;SDS011;45269;43.568;22.244;2024-03-23T08:41:00;10.13;;;8.57;;
59458;SDS011;45269;43.568;22.244;2024-03-23T08:43:26;9.02;;;7.82;;
59458;SDS011;45269;43.568;22.244;2024-03-23T08:45:51;11.95;;;9.77;;
59458;SDS011;45269;43.568;22.244;2024-03-23T08:48:17;8.32;;;7.40;;
59458;SDS011;45269;43.568;22.244;2024-03-23T08:50:43;8.27;;;7.47;;
59458;SDS011;45269;43.568;22.244;2024-03-23T08:53:08;9.15;;;8.20;;
59458;SDS011;45269;43.568;22.244;2024-03-23T08:55:34;10.10;;;8.43;;
59458;SDS011;45269;43.568;22.244;2024-03-23T08:57:59;10.27;;;8.90;;
59458;SDS011;45269;43.568;22.244;2024-03-23T09:00:25;15.60;;;13.23;;
59458;SDS011;45269;43.568;22.244;2024-03-23T09:02:51;21.30;;;19.08;;
59458;SDS011;45269;43.568;22.244;2024-03-23T09:05:16;11.00;;;9.85;;
59458;SDS011;45269;43.568;22.244;2024-03-23T09:07:41;11.00;;;8.18;;
59458;SDS011;45269;43.568;22.244;2024-03-23T09:10:07;8.43;;;7.38;;
59458;SDS011;45269;43.568;22.244;2024-03-23T09:12:32;8.20;;;6.32;;
59458;SDS011;45269;43.568;22.244;2024-03-23T09:14:57;8.55;;;6.93;;
59458;SDS011;45269;43.568;22.244;2024-03-23T09:17:23;7.85;;;7.05;;
59458;SDS011;45269;43.568;22.244;2024-03-23T09:19:48;8.57;;;7.75;;
59458;SDS011;45269;43.568;22.244;2024-03-23T09:22:13;9.45;;;8.35;;
59458;SDS011;45269;43.568;22.244;2024-03-23T09:24:39;14.90;;;11.15;;
59458;SDS011;45269;43.568;22.244;2024-03-23T09:27:05;11.98;;;9.35;;
59458;SDS011;45269;43.568;22.244;2024-03-23T09:29:30;12.15;;;7.97;;
59458;SDS011;45269;43.568;22.244;2024-03-23T09:31:55;10.13;;;9.02;;
59458;SDS011;45269;43.568;22.244;2024-03-23T09:34:21;10.60;;;7.70;;
59458;SDS011;45269;43.568;22.244;2024-03-23T09:36:46;7.97;;;7.18;;
59458;SDS011;45269;43.568;22.244;2024-03-23T09:39:12;9.90;;;7.40;;
59458;SDS011;45269;43.568;22.244;2024-03-23T09:41:38;9.82;;;8.93;;
59458;SDS011;45269;43.568;22.244;2024-03-23T09:44:04;9.15;;;7.80;;
59458;SDS011;45269;43.568;22.244;2024-03-23T09:46:30;11.20;;;8.15;;
59458;SDS011;45269;43.568;22.244;2024-03-23T09:48:59;11.45;;;8.20;;
59458;SDS011;45269;43.568;22.244;2024-03-23T09:51:24;9.27;;;8.05;;
59458;SDS011;45269;43.568;22.244;2024-03-23T09:53:50;6.97;;;6.22;;
59458;SDS011;45269;43.568;22.244;2024-03-23T09:56:17;8.60;;;7.78;;
59458;SDS011;45269;43.568;22.244;2024-03-23T09:58:42;8.00;;;7.20;;
59458;SDS011;45269;43.568;22.244;2024-03-23T10:01:07;7.20;;;6.22;;
59458;SDS011;45269;43.568;22.244;2024-03-23T10:03:42;10.75;;;7.45;;
59458;SDS011;45269;43.568;22.244;2024-03-23T10:06:07;16.50;;;14.63;;
59458;SDS011;45269;43.568;22.244;2024-03-23T10:08:32;8.73;;;7.93;;
59458;SDS011;45269;43.568;22.244;2024-03-23T10:10:58;7.65;;;5.82;;
59458;SDS011;45269;43.568;22.244;2024-03-23T10:13:37;5.55;;;5.05;;
59458;SDS011;45269;43.568;22.244;2024-03-23T10:16:06;15.57;;;13.98;;
59458;SDS011;45269;43.568;22.244;2024-03-23T10:18:31;4.78;;;4.22;;
59458;SDS011;45269;43.568;22.244;2024-03-23T10:23:30;6.60;;;4.70;;
59458;SDS011;45269;43.568;22.244;2024-03-23T10:26:00;6.72;;;5.57;;
59458;SDS011;45269;43.568;22.244;2024-03-23T10:28:37;7.97;;;7.10;;
59458;SDS011;45269;43.568;22.244;2024-03-23T10:31:15;7.63;;;6.78;;
59458;SDS011;45269;43.568;22.244;2024-03-23T10:33:44;10.45;;;7.50;;
59458;SDS011;45269;43.568;22.244;2024-03-23T10:36:09;11.48;;;9.90;;
59458;SDS011;45269;43.568;22.244;2024-03-23T10:38:34;6.13;;;5.43;;
59458;SDS011;45269;43.568;22.244;2024-03-23T10:41:00;9.93;;;8.13;;
59458;SDS011;45269;43.568;22.244;2024-03-23T10:43:26;5.90;;;5.30;;
59458;SDS011;45269;43.568;22.244;2024-03-23T10:45:51;5.97;;;5.00;;
59458;SDS011;45269;43.568;22.244;2024-03-23T10:48:17;10.35;;;6.93;;
59458;SDS011;45269;43.568;22.244;2024-03-23T10:50:42;8.63;;;6.13;;
59458;SDS011;45269;43.568;22.244;2024-03-23T10:53:07;11.30;;;9.50;;
59458;SDS011;45269;43.568;22.244;2024-03-23T10:55:33;7.65;;;6.80;;
59458;SDS011;45269;43.568;22.244;2024-03-23T10:57:59;8.63;;;5.40;;
59458;SDS011;45269;43.568;22.244;2024-03-23T11:00:25;6.45;;;4.53;;
59458;SDS011;45269;43.568;22.244;2024-03-23T11:02:50;12.15;;;10.43;;
59458;SDS011;45269;43.568;22.244;2024-03-23T11:05:31;10.05;;;9.00;;
59458;SDS011;45269;43.568;22.244;2024-03-23T11:07:57;6.13;;;5.53;;
59458;SDS011;45269;43.568;22.244;2024-03-23T11:10:26;9.10;;;7.55;;
59458;SDS011;45269;43.568;22.244;2024-03-23T11:15:18;8.82;;;7.93;;
59458;SDS011;45269;43.568;22.244;2024-03-23T11:17:43;8.85;;;8.10;;
59458;SDS011;45269;43.568;22.244;2024-03-23T11:20:30;10.73;;;9.68;;
59458;SDS011;45269;43.568;22.244;2024-03-23T11:25:24;12.20;;;10.87;;
59458;SDS011;45269;43.568;22.244;2024-03-23T11:27:51;22.63;;;17.50;;
59458;SDS011;45269;43.568;22.244;2024-03-23T11:32:43;7.43;;;6.72;;
59458;SDS011;45269;43.568;22.244;2024-03-23T11:35:08;9.73;;;7.35;;
59458;SDS011;45269;43.568;22.244;2024-03-23T11:37:35;8.73;;;7.72;;
59458;SDS011;45269;43.568;22.244;2024-03-23T11:40:00;8.10;;;7.40;;
59458;SDS011;45269;43.568;22.244;2024-03-23T11:42:26;6.28;;;4.90;;
59458;SDS011;45269;43.568;22.244;2024-03-23T11:44:52;7.68;;;4.35;;
59458;SDS011;45269;43.568;22.244;2024-03-23T11:47:17;5.13;;;4.63;;
59458;SDS011;45269;43.568;22.244;2024-03-23T11:49:42;4.68;;;3.90;;
59458;SDS011;45269;43.568;22.244;2024-03-23T11:52:08;4.50;;;3.90;;
59458;SDS011;45269;43.568;22.244;2024-03-23T11:54:33;3.85;;;3.55;;
59458;SDS011;45269;43.568;22.244;2024-03-23T11:56:59;5.70;;;4.07;;
59458;SDS011;45269;43.568;22.244;2024-03-23T12:01:56;6.15;;;4.53;;
59458;SDS011;45269;43.568;22.244;2024-03-23T12:04:26;6.25;;;4.70;;
59458;SDS011;45269;43.568;22.244;2024-03-23T12:06:51;6.40;;;4.90;;
59458;SDS011;45269;43.568;22.244;2024-03-23T12:09:16;5.35;;;4.85;;
59458;SDS011;45269;43.568;22.244;2024-03-23T12:11:42;8.02;;;4.93;;
59458;SDS011;45269;43.568;22.244;2024-03-23T12:14:07;7.07;;;4.53;;
59458;SDS011;45269;43.568;22.244;2024-03-23T12:16:32;8.65;;;6.15;;
59458;SDS011;45269;43.568;22.244;2024-03-23T12:18:58;8.93;;;6.20;;
59458;SDS011;45269;43.568;22.244;2024-03-23T12:21:29;8.88;;;5.70;;
59458;SDS011;45269;43.568;22.244;2024-03-23T12:23:55;6.82;;;6.07;;
59458;SDS011;45269;43.568;22.244;2024-03-23T12:26:20;6.15;;;5.55;;
59458;SDS011;45269;43.568;22.244;2024-03-23T12:28:45;8.25;;;5.80;;
59458;SDS011;45269;43.568;22.244;2024-03-23T12:31:11;11.38;;;7.10;;
59458;SDS011;45269;43.568;22.244;2024-03-23T12:33:36;9.20;;;7.60;;
59458;SDS011;45269;43.568;22.244;2024-03-23T12:36:02;9.82;;;8.93;;
59458;SDS011;45269;43.568;22.244;2024-03-23T12:38:28;7.00;;;5.20;;
59458;SDS011;45269;43.568;22.244;2024-03-23T12:40:53;8.35;;;7.65;;
59458;SDS011;45269;43.568;22.244;2024-03-23T12:43:18;9.45;;;4.68;;
59458;SDS011;45269;43.568;22.244;2024-03-23T12:45:47;6.22;;;4.60;;
59458;SDS011;45269;43.568;22.244;2024-03-23T12:48:12;5.10;;;4.10;;
59458;SDS011;45269;43.568;22.244;2024-03-23T12:50:38;10.93;;;9.32;;
59458;SDS011;45269;43.568;22.244;2024-03-23T12:53:03;6.90;;;6.30;;
59458;SDS011;45269;43.568;22.244;2024-03-23T12:55:29;5.07;;;4.60;;
59458;SDS011;45269;43.568;22.244;2024-03-23T12:57:54;11.40;;;10.40;;
59458;SDS011;45269;43.568;22.244;2024-03-23T13:00:19;5.60;;;5.00;;
59458;SDS011;45269;43.568;22.244;2024-03-23T13:02:45;7.78;;;6.88;;
59458;SDS011;45269;43.568;22.244;2024-03-23T13:05:10;6.05;;;4.88;;
59458;SDS011;45269;43.568;22.244;2024-03-23T13:07:35;4.50;;;4.10;;
59458;SDS011;45269;43.568;22.244;2024-03-23T13:10:02;5.25;;;4.70;;
59458;SDS011;45269;43.568;22.244;2024-03-23T13:12:28;11.93;;;8.88;;
59458;SDS011;45269;43.568;22.244;2024-03-23T13:14:53;15.18;;;13.82;;
59458;SDS011;45269;43.568;22.244;2024-03-23T13:17:19;13.10;;;11.77;;
59458;SDS011;45269;43.568;22.244;2024-03-23T13:19:44;5.93;;;5.38;;
59458;SDS011;45269;43.568;22.244;2024-03-23T13:22:09;5.20;;;4.70;;
59458;SDS011;45269;43.568;22.244;2024-03-23T13:24:38;7.22;;;4.55;;
59458;SDS011;45269;43.568;22.244;2024-03-23T13:27:03;7.47;;;6.72;;
59458;SDS011;45269;43.568;22.244;2024-03-23T13:29:30;5.65;;;5.15;;
59458;SDS011;45269;43.568;22.244;2024-03-23T13:31:55;5.50;;;4.95;;
59458;SDS011;45269;43.568;22.244;2024-03-23T13:34:21;5.20;;;4.70;;
59458;SDS011;45269;43.568;22.244;2024-03-23T13:36:46;5.30;;;4.80;;
59458;SDS011;45269;43.568;22.244;2024-03-23T13:39:12;17.88;;;13.98;;
59458;SDS011;45269;43.568;22.244;2024-03-23T13:41:38;23.95;;;11.88;;
59458;SDS011;45269;43.568;22.244;2024-03-23T13:44:05;5.32;;;4.82;;
59458;SDS011;45269;43.568;22.244;2024-03-23T13:46:30;12.23;;;9.43;;
59458;SDS011;45269;43.568;22.244;2024-03-23T13:48:55;4.82;;;4.10;;
59458;SDS011;45269;43.568;22.244;2024-03-23T13:51:24;4.50;;;4.10;;
59458;SDS011;45269;43.568;22.244;2024-03-23T13:53:55;4.35;;;3.95;;
59458;SDS011;45269;43.568;22.244;2024-03-23T13:56:30;3.72;;;3.33;;
59458;SDS011;45269;43.568;22.244;2024-03-23T13:58:55;5.40;;;3.67;;
59458;SDS011;45269;43.568;22.244;2024-03-23T14:01:21;4.00;;;3.53;;
59458;SDS011;45269;43.568;22.244;2024-03-23T14:03:46;4.72;;;4.00;;
59458;SDS011;45269;43.568;22.244;2024-03-23T14:06:12;5.40;;;3.80;;
59458;SDS011;45269;43.568;22.244;2024-03-23T14:08:37;6.20;;;4.45;;
59458;SDS011;45269;43.568;22.244;2024-03-23T14:11:07;6.93;;;4.28;;
59458;SDS011;45269;43.568;22.244;2024-03-23T14:13:32;4.95;;;4.15;;
59458;SDS011;45269;43.568;22.244;2024-03-23T14:15:58;5.32;;;4.82;;
59458;SDS011;45269;43.568;22.244;2024-03-23T14:18:23;5.57;;;4.25;;
59458;SDS011;45269;43.568;22.244;2024-03-23T14:20:49;8.30;;;6.85;;
59458;SDS011;45269;43.568;22.244;2024-03-23T14:23:15;9.77;;;4.93;;
59458;SDS011;45269;43.568;22.244;2024-03-23T14:25:40;6.18;;;4.28;;
59458;SDS011;45269;43.568;22.244;2024-03-23T14:28:06;4.93;;;4.00;;
59458;SDS011;45269;43.568;22.244;2024-03-23T14:30:33;4.85;;;3.90;;
59458;SDS011;45269;43.568;22.244;2024-03-23T14:32:58;6.75;;;4.60;;
59458;SDS011;45269;43.568;22.244;2024-03-23T14:35:24;5.35;;;4.47;;
59458;SDS011;45269;43.568;22.244;2024-03-23T14:37:51;5.18;;;4.57;;
59458;SDS011;45269;43.568;22.244;2024-03-23T14:40:18;6.07;;;5.15;;
59458;SDS011;45269;43.568;22.244;2024-03-23T14:42:43;13.50;;;5.63;;
59458;SDS011;45269;43.568;22.244;2024-03-23T14:45:09;7.30;;;5.38;;
59458;SDS011;45269;43.568;22.244;2024-03-23T14:47:34;8.48;;;4.95;;
59458;SDS011;45269;43.568;22.244;2024-03-23T14:49:59;6.70;;;4.72;;
59458;SDS011;45269;43.568;22.244;2024-03-23T14:52:26;6.75;;;5.07;;
59458;SDS011;45269;43.568;22.244;2024-03-23T14:54:51;19.50;;;14.77;;
59458;SDS011;45269;43.568;22.244;2024-03-23T14:57:16;8.93;;;8.02;;
59458;SDS011;45269;43.568;22.244;2024-03-23T14:59:44;6.93;;;6.18;;
59458;SDS011;45269;43.568;22.244;2024-03-23T15:02:09;19.90;;;17.85;;
59458;SDS011;45269;43.568;22.244;2024-03-23T15:04:34;25.17;;;22.75;;
59458;SDS011;45269;43.568;22.244;2024-03-23T15:07:00;16.65;;;14.27;;
59458;SDS011;45269;43.568;22.244;2024-03-23T15:09:26;8.18;;;7.28;;
59458;SDS011;45269;43.568;22.244;2024-03-23T15:11:51;4.88;;;4.47;;
59458;SDS011;45269;43.568;22.244;2024-03-23T15:14:16;5.10;;;4.68;;